createdAt,value
2022-09-16T00:03:08.135Z,3.33
2022-09-16T00:05:57.093Z,3.60
2022-09-16T00:08:45.857Z,4.00
2022-09-16T00:11:36.039Z,4.17
2022-09-16T00:14:24.794Z,4.03
2022-09-16T00:17:13.751Z,3.80
2022-09-16T00:20:03.121Z,4.27
2022-09-16T00:22:52.288Z,3.77
2022-09-16T00:25:41.861Z,4.10
2022-09-16T00:28:30.828Z,3.73
2022-09-16T00:31:20.303Z,3.83
2022-09-16T00:34:09.256Z,3.83
2022-09-16T00:36:58.111Z,4.13
2022-09-16T00:39:49.375Z,4.33
2022-09-16T00:42:41.971Z,3.83
2022-09-16T00:45:32.364Z,4.27
2022-09-16T00:48:24.436Z,4.40
2022-09-16T00:51:16.199Z,4.43
2022-09-16T00:54:09.288Z,4.20
2022-09-16T00:57:00.259Z,4.40
2022-09-16T00:59:52.918Z,4.50
2022-09-16T01:02:44.096Z,4.33
2022-09-16T01:05:34.358Z,4.83
2022-09-16T01:08:23.091Z,4.80
2022-09-16T01:11:12.672Z,4.50
2022-09-16T01:14:18.835Z,4.00
2022-09-16T01:17:20.079Z,3.90
2022-09-16T01:20:47.540Z,4.83
2022-09-16T01:24:07.424Z,4.57
2022-09-16T01:27:21.577Z,4.20
2022-09-16T01:30:57.096Z,4.40
2022-09-16T01:33:59.534Z,4.33
2022-09-16T01:36:56.862Z,4.70
2022-09-16T01:39:55.692Z,4.50
2022-09-16T01:42:55.466Z,4.40
2022-09-16T01:45:53.959Z,4.50
2022-09-16T01:48:45.043Z,4.20
2022-09-16T01:51:42.211Z,4.50
2022-09-16T01:54:36.049Z,4.83
2022-09-16T01:57:35.901Z,4.50
2022-09-16T02:00:25.273Z,4.57
2022-09-16T02:03:18.871Z,5.33
2022-09-16T02:06:10.969Z,4.10
2022-09-16T02:11:54.627Z,4.40
2022-09-16T02:14:45.846Z,4.15
2022-09-16T02:17:41.763Z,4.23
2022-09-16T02:20:33.340Z,4.63
2022-09-16T02:23:25.835Z,4.47
2022-09-16T02:26:19.907Z,4.70
2022-09-16T02:29:14.601Z,6.67
2022-09-16T02:32:09.022Z,5.60
2022-09-16T02:34:59.278Z,7.30
2022-09-16T02:37:52.292Z,6.90
2022-09-16T02:40:47.440Z,7.37
2022-09-16T02:43:36.610Z,5.40
2022-09-16T02:46:38.059Z,4.23
2022-09-16T02:49:30.930Z,3.90
2022-09-16T02:52:30.317Z,3.73
2022-09-16T02:55:30.536Z,3.40
2022-09-16T02:58:20.524Z,3.30
2022-09-16T03:01:11.908Z,3.57
2022-09-16T03:04:01.525Z,3.87
2022-09-16T03:06:49.521Z,4.03
2022-09-16T03:09:41.643Z,3.53
2022-09-16T03:12:50.514Z,3.30
2022-09-16T03:15:55.920Z,3.60
2022-09-16T03:18:57.773Z,4.07
2022-09-16T03:21:55.690Z,4.05
2022-09-16T03:24:57.144Z,3.10
2022-09-16T03:27:51.387Z,3.00
2022-09-16T03:30:46.132Z,3.93
2022-09-16T03:33:39.568Z,3.57
2022-09-16T03:36:33.310Z,3.63
2022-09-16T03:39:23.449Z,3.87
2022-09-16T03:42:13.637Z,4.27
2022-09-16T03:45:02.594Z,3.60
2022-09-16T03:47:52.906Z,3.67
2022-09-16T03:50:41.750Z,3.50
2022-09-16T03:53:30.705Z,3.37
2022-09-16T03:56:19.869Z,3.83
2022-09-16T03:59:08.421Z,3.73
2022-09-16T04:01:58.130Z,3.77
2022-09-16T04:04:47.898Z,4.07
2022-09-16T04:07:36.529Z,3.33
2022-09-16T04:10:24.876Z,3.70
2022-09-16T04:13:13.632Z,3.53
2022-09-16T04:16:04.501Z,3.40
2022-09-16T04:18:53.396Z,3.83
2022-09-16T04:21:43.098Z,3.40
2022-09-16T04:24:32.369Z,3.90
2022-09-16T04:27:21.628Z,4.10
2022-09-16T04:30:14.026Z,3.50
2022-09-16T04:35:49.818Z,3.30
2022-09-16T04:38:39.143Z,3.00
2022-09-16T04:41:28.759Z,3.60
2022-09-16T04:44:18.335Z,3.60
2022-09-16T04:47:08.116Z,3.43
2022-09-16T04:49:57.074Z,3.73
2022-09-16T04:52:45.828Z,3.50
2022-09-16T04:55:34.789Z,3.50
2022-09-16T04:58:23.750Z,3.10
2022-09-16T05:01:14.952Z,3.43
2022-09-16T05:04:06.934Z,4.33
2022-09-16T05:09:43.483Z,3.13
2022-09-16T05:12:31.623Z,3.47
2022-09-16T05:15:20.991Z,4.20
2022-09-16T05:18:09.546Z,3.70
2022-09-16T05:21:00.351Z,3.63
2022-09-16T05:23:49.697Z,2.97
2022-09-16T05:26:41.996Z,3.53
2022-09-16T05:29:30.506Z,3.30
2022-09-16T05:32:19.677Z,3.40
2022-09-16T05:35:10.681Z,3.30
2022-09-16T05:37:59.430Z,3.30
2022-09-16T05:40:48.394Z,2.93
2022-09-16T05:43:38.170Z,3.40
2022-09-16T05:46:27.986Z,3.40
2022-09-16T05:49:20.138Z,3.60
2022-09-16T05:52:08.329Z,3.87
2022-09-16T05:54:56.894Z,2.77
2022-09-16T05:57:45.659Z,3.70
2022-09-16T06:00:34.801Z,3.03
2022-09-16T06:03:24.169Z,3.50
2022-09-16T06:06:19.052Z,3.10
2022-09-16T06:09:09.657Z,3.00
2022-09-16T06:12:02.088Z,3.03
2022-09-16T06:14:51.066Z,3.00
2022-09-16T06:17:40.644Z,3.40
2022-09-16T06:20:29.807Z,3.43
2022-09-16T06:23:19.546Z,3.27
2022-09-16T06:26:12.878Z,3.50
2022-09-16T06:29:01.400Z,3.57
2022-09-16T06:31:50.356Z,3.23
2022-09-16T06:34:39.531Z,4.37
2022-09-16T06:37:28.483Z,3.13
2022-09-16T06:40:17.925Z,2.77
2022-09-16T06:43:07.019Z,3.40
2022-09-16T06:45:59.337Z,3.00
2022-09-16T06:48:50.381Z,3.33
2022-09-16T06:51:39.229Z,2.50
2022-09-16T06:54:28.389Z,2.93
2022-09-16T06:57:19.775Z,2.73
2022-09-16T07:00:12.762Z,3.53
2022-09-16T07:03:04.038Z,3.10
2022-09-16T07:06:01.376Z,3.23
2022-09-16T07:08:50.391Z,3.40
2022-09-16T07:11:40.264Z,2.90
2022-09-16T07:14:32.443Z,3.17
2022-09-16T07:17:23.210Z,2.67
2022-09-16T07:20:13.848Z,2.87
2022-09-16T07:23:02.567Z,2.80
2022-09-16T07:26:01.770Z,2.83
2022-09-16T07:28:53.435Z,2.60
2022-09-16T07:31:42.775Z,2.83
2022-09-16T07:34:32.129Z,2.83
2022-09-16T07:37:20.594Z,2.80
2022-09-16T07:40:12.878Z,2.53
2022-09-16T07:43:01.878Z,2.53
2022-09-16T07:45:57.999Z,1.80
2022-09-16T07:48:49.515Z,1.80
2022-09-16T07:51:37.972Z,2.03
2022-09-16T07:54:26.932Z,2.27
2022-09-16T07:57:15.687Z,2.10
2022-09-16T08:00:10.517Z,2.40
2022-09-16T08:03:01.870Z,1.83
2022-09-16T08:05:51.170Z,1.73
2022-09-16T08:08:39.726Z,2.23
2022-09-16T08:11:33.601Z,2.43
2022-09-16T08:14:22.350Z,1.80
2022-09-16T08:17:11.314Z,1.80
2022-09-16T08:20:00.275Z,1.97
2022-09-16T08:22:49.643Z,1.97
2022-09-16T08:25:39.220Z,2.10
2022-09-16T08:28:39.761Z,2.03
2022-09-16T08:31:37.546Z,2.00
2022-09-16T08:34:26.579Z,1.80
2022-09-16T08:37:14.340Z,2.10
2022-09-16T08:40:05.171Z,1.93
2022-09-16T08:43:04.378Z,2.10
2022-09-16T08:45:59.694Z,2.23
2022-09-16T08:48:57.073Z,2.37
2022-09-16T08:51:46.964Z,2.43
2022-09-16T08:54:46.546Z,1.80
2022-09-16T08:57:41.673Z,1.57
2022-09-16T09:00:31.051Z,2.00
2022-09-16T09:03:37.361Z,2.33
2022-09-16T09:06:42.759Z,1.67
2022-09-16T09:09:51.186Z,1.87
2022-09-16T09:12:47.131Z,1.67
2022-09-16T09:15:43.111Z,1.47
2022-09-16T09:18:45.091Z,1.60
2022-09-16T09:21:43.264Z,1.43
2022-09-16T09:24:58.552Z,1.50
2022-09-16T09:27:54.935Z,1.30
2022-09-16T09:30:53.105Z,1.43
2022-09-16T09:36:55.447Z,1.20
2022-09-16T09:39:57.158Z,1.17
2022-09-16T09:42:52.358Z,0.90
2022-09-16T09:45:48.597Z,1.20
2022-09-16T09:48:42.963Z,1.10
2022-09-16T09:51:37.435Z,0.93
2022-09-16T09:54:29.704Z,1.07
2022-09-16T09:57:27.747Z,1.00
2022-09-16T10:00:20.962Z,0.90
2022-09-16T10:03:17.444Z,1.10
2022-09-16T10:06:07.903Z,1.03
2022-09-16T10:08:58.745Z,1.00
2022-09-16T10:11:50.137Z,1.33
2022-09-16T10:14:39.470Z,0.90
2022-09-16T10:17:31.245Z,1.10
2022-09-16T10:20:34.334Z,0.80
2022-09-16T10:23:29.605Z,0.97
2022-09-16T10:26:21.979Z,1.40
2022-09-16T10:29:18.960Z,0.63
2022-09-16T10:32:15.878Z,0.70
2022-09-16T10:35:09.692Z,0.60
2022-09-16T10:38:01.514Z,0.70
2022-09-16T10:40:57.413Z,0.97
2022-09-16T10:43:51.367Z,0.73
2022-09-16T10:46:52.380Z,0.90
2022-09-16T10:49:44.849Z,1.10
2022-09-16T10:52:41.398Z,0.60
2022-09-16T10:55:34.810Z,1.23
2022-09-16T10:58:23.003Z,1.00
2022-09-16T11:01:28.625Z,1.10
2022-09-16T11:05:00.879Z,0.90
2022-09-16T11:07:58.604Z,1.10
2022-09-16T11:11:16.330Z,1.17
2022-09-16T11:14:15.538Z,1.10
2022-09-16T11:17:25.744Z,1.07
2022-09-16T11:20:48.543Z,0.93
2022-09-16T11:23:50.567Z,1.27
2022-09-16T11:26:47.782Z,1.30
2022-09-16T11:30:01.507Z,1.10
2022-09-16T11:36:22.359Z,1.20
2022-09-16T11:39:27.013Z,1.03
2022-09-16T11:42:25.751Z,1.50
2022-09-16T11:45:27.564Z,0.70
2022-09-16T11:48:39.854Z,1.00
2022-09-16T11:51:50.796Z,1.47
2022-09-16T11:54:58.153Z,1.00
2022-09-16T11:57:50.787Z,1.20
2022-09-16T12:00:41.569Z,1.40
2022-09-16T12:03:38.379Z,1.67
2022-09-16T12:06:34.860Z,1.33
2022-09-16T12:09:33.816Z,0.90
2022-09-16T12:12:27.953Z,1.20
2022-09-16T12:15:21.220Z,2.53
2022-09-16T12:18:15.540Z,1.60
2022-09-16T12:21:09.618Z,1.63
2022-09-16T12:24:03.702Z,1.43
2022-09-16T12:26:57.547Z,1.10
2022-09-16T12:29:51.451Z,1.40
2022-09-16T12:32:49.830Z,1.30
2022-09-16T12:35:42.398Z,1.40
2022-09-16T12:38:31.649Z,1.73
2022-09-16T12:42:02.556Z,1.03
2022-09-16T12:45:11.238Z,1.30
2022-09-16T12:48:24.438Z,2.17
2022-09-16T12:51:30.714Z,1.40
2022-09-16T12:55:03.986Z,1.00
2022-09-16T12:58:15.801Z,0.97
2022-09-16T13:01:18.497Z,1.50
2022-09-16T13:04:17.693Z,1.00
2022-09-16T13:07:07.052Z,1.17
2022-09-16T13:10:05.377Z,1.23
2022-09-16T13:12:57.291Z,3.57
2022-09-16T13:15:57.762Z,1.60
2022-09-16T13:18:49.482Z,1.47
2022-09-16T13:21:44.017Z,2.33
2022-09-16T13:24:38.955Z,1.47
2022-09-16T13:27:31.308Z,1.40
2022-09-16T13:30:31.527Z,1.53
2022-09-16T13:33:29.434Z,1.20
2022-09-16T13:36:33.978Z,2.17
2022-09-16T13:39:34.442Z,1.30
2022-09-16T13:42:24.835Z,1.30
2022-09-16T13:45:32.291Z,1.55
2022-09-16T13:48:24.505Z,1.30
2022-09-16T13:51:19.453Z,1.33
2022-09-16T13:54:22.518Z,1.23
2022-09-16T13:57:40.353Z,1.73
2022-09-16T14:00:37.273Z,1.30
2022-09-16T14:03:57.746Z,1.30
2022-09-16T14:06:59.192Z,1.10
2022-09-16T14:09:59.686Z,1.20
2022-09-16T14:13:10.510Z,1.60
2022-09-16T14:16:00.375Z,1.57
2022-09-16T14:18:55.996Z,1.55
2022-09-16T14:21:44.202Z,2.20
2022-09-16T14:24:37.677Z,1.70
2022-09-16T14:27:33.663Z,1.30
2022-09-16T14:30:22.954Z,1.47
2022-09-16T14:33:13.759Z,1.77
2022-09-16T14:36:09.683Z,1.87
2022-09-16T14:39:00.891Z,1.30
2022-09-16T14:41:52.432Z,1.05
2022-09-16T14:44:47.638Z,1.30
2022-09-16T14:47:51.323Z,1.40
2022-09-16T14:50:44.343Z,1.47
2022-09-16T14:53:38.250Z,1.17
2022-09-16T14:56:27.425Z,1.30
2022-09-16T14:59:25.194Z,1.53
2022-09-16T15:02:21.967Z,1.33
2022-09-16T15:05:24.767Z,1.30
2022-09-16T15:08:20.104Z,1.60
2022-09-16T15:11:24.455Z,1.60
2022-09-16T15:14:25.403Z,1.63
2022-09-16T15:17:19.763Z,1.27
2022-09-16T15:20:21.713Z,1.50
2022-09-16T15:23:24.325Z,1.50
2022-09-16T15:26:16.948Z,1.50
2022-09-16T15:32:18.194Z,1.73
2022-09-16T15:35:19.075Z,2.00
2022-09-16T15:38:13.566Z,2.33
2022-09-16T15:41:12.977Z,1.90
2022-09-16T15:44:08.841Z,1.87
2022-09-16T15:46:58.266Z,1.80
2022-09-16T15:49:48.847Z,1.70
2022-09-16T15:52:55.162Z,2.20
2022-09-16T15:55:58.322Z,1.77
2022-09-16T15:58:48.923Z,1.50
2022-09-16T16:01:44.168Z,1.72
2022-09-16T16:04:34.984Z,1.87
2022-09-16T16:07:41.810Z,2.47
2022-09-16T16:10:32.335Z,2.77
2022-09-16T16:13:21.370Z,2.02
2022-09-16T16:16:11.688Z,1.90
2022-09-16T16:19:00.756Z,2.20
2022-09-16T16:21:49.279Z,1.83
2022-09-16T16:24:37.827Z,3.63
2022-09-16T16:27:26.787Z,6.20
2022-09-16T16:30:16.363Z,7.80
2022-09-16T16:33:07.921Z,7.70
2022-09-16T16:35:57.150Z,9.10
2022-09-16T16:38:46.022Z,7.93
2022-09-16T16:41:34.661Z,7.97
2022-09-16T16:44:25.462Z,6.33
2022-09-16T16:47:14.217Z,5.63
2022-09-16T16:50:03.206Z,5.03
2022-09-16T16:52:52.962Z,4.20
2022-09-16T16:55:41.509Z,3.53
2022-09-16T16:58:35.548Z,2.90
2022-09-16T17:01:24.606Z,3.00
2022-09-16T17:04:14.326Z,2.77
2022-09-16T17:07:24.580Z,3.27
2022-09-16T17:10:12.730Z,2.77
2022-09-16T17:13:01.073Z,2.50
2022-09-16T17:15:50.109Z,3.00
2022-09-16T17:18:40.380Z,3.10
2022-09-16T17:21:31.233Z,3.10
2022-09-16T17:24:20.602Z,2.92
2022-09-16T17:27:09.148Z,3.10
2022-09-16T17:30:00.569Z,3.33
2022-09-16T17:35:36.853Z,2.30
2022-09-16T17:38:25.609Z,2.80
2022-09-16T17:41:16.237Z,2.80
2022-09-16T17:44:08.243Z,2.33
2022-09-16T17:46:57.594Z,3.43
2022-09-16T17:49:46.925Z,3.00
2022-09-16T17:52:36.335Z,2.70
2022-09-16T17:55:25.721Z,2.83
2022-09-16T17:58:15.295Z,2.60
2022-09-16T18:01:09.389Z,3.30
2022-09-16T18:03:58.454Z,3.20
2022-09-16T18:06:47.397Z,3.03
2022-09-16T18:09:36.663Z,3.13
2022-09-16T18:12:25.828Z,3.60
2022-09-16T18:15:15.200Z,3.63
2022-09-16T18:18:04.158Z,3.80
2022-09-16T18:20:55.795Z,3.67
2022-09-16T18:23:45.972Z,4.53
2022-09-16T18:26:35.341Z,3.93
2022-09-16T18:29:23.891Z,3.57
2022-09-16T18:32:12.646Z,3.77
2022-09-16T18:35:01.401Z,4.03
2022-09-16T18:37:50.196Z,3.03
2022-09-16T18:40:39.708Z,3.73
2022-09-16T18:43:28.695Z,4.00
2022-09-16T18:46:25.624Z,3.30
2022-09-16T18:49:17.060Z,3.20
2022-09-16T18:52:06.438Z,3.00
2022-09-16T18:54:54.979Z,3.07
2022-09-16T18:57:44.347Z,4.70
2022-09-16T19:00:34.330Z,3.83
2022-09-16T19:03:23.701Z,2.87
2022-09-16T19:06:12.046Z,3.27
2022-09-16T19:09:01.771Z,4.17
2022-09-16T19:11:52.395Z,3.50
2022-09-16T19:14:41.190Z,3.50
2022-09-16T19:17:30.777Z,3.85
2022-09-16T19:20:21.148Z,4.13
2022-09-16T19:23:09.905Z,4.00
2022-09-16T19:26:04.189Z,3.73
2022-09-16T19:28:53.353Z,3.30
2022-09-16T19:31:43.961Z,2.77
2022-09-16T19:34:32.501Z,3.08
2022-09-16T19:37:21.466Z,3.10
2022-09-16T19:40:11.198Z,3.53
2022-09-16T19:42:59.999Z,3.97
2022-09-16T19:45:49.181Z,3.27
2022-09-16T19:48:40.785Z,2.87
2022-09-16T19:51:32.610Z,2.60
2022-09-16T19:57:09.712Z,3.17
2022-09-16T19:59:58.674Z,3.03
2022-09-16T20:02:47.672Z,3.10
2022-09-16T20:05:36.591Z,3.00
2022-09-16T20:08:25.144Z,3.10
2022-09-16T20:11:16.720Z,2.85
2022-09-16T20:14:11.388Z,2.98
2022-09-16T20:16:59.743Z,3.10
2022-09-16T20:19:49.582Z,2.73
2022-09-16T20:22:39.364Z,2.40
2022-09-16T20:25:27.915Z,2.70
2022-09-16T20:28:16.876Z,2.97
2022-09-16T20:31:06.885Z,2.80
2022-09-16T20:33:56.033Z,2.87
2022-09-16T20:36:46.165Z,2.80
2022-09-16T20:39:34.967Z,2.63
2022-09-16T20:42:24.134Z,2.60
2022-09-16T20:45:13.298Z,2.73
2022-09-16T20:48:02.874Z,2.87
2022-09-16T20:50:51.628Z,3.83
2022-09-16T20:53:41.613Z,2.70
2022-09-16T20:56:37.771Z,3.93
2022-09-16T20:59:27.528Z,3.20
2022-09-16T21:02:16.734Z,3.60
2022-09-16T21:05:07.865Z,3.27
2022-09-16T21:07:57.789Z,3.95
2022-09-16T21:10:47.457Z,3.47
2022-09-16T21:13:36.621Z,3.17
2022-09-16T21:16:28.684Z,3.23
2022-09-16T21:19:18.233Z,2.90
2022-09-16T21:22:07.190Z,3.33
2022-09-16T21:24:56.148Z,2.87
2022-09-16T21:27:44.698Z,2.63
2022-09-16T21:30:33.658Z,3.40
2022-09-16T21:33:22.209Z,3.20
2022-09-16T21:36:13.350Z,3.30
2022-09-16T21:39:01.630Z,3.10
2022-09-16T21:41:50.319Z,3.00
2022-09-16T21:44:39.286Z,3.10
2022-09-16T21:47:28.239Z,2.60
2022-09-16T21:50:18.393Z,2.77
2022-09-16T21:53:06.417Z,2.80
2022-09-16T21:56:02.842Z,2.73
2022-09-16T21:58:55.129Z,3.30
2022-09-16T22:01:43.732Z,2.80
2022-09-16T22:04:33.057Z,2.67
2022-09-16T22:07:21.657Z,2.97
2022-09-16T22:10:11.593Z,2.80
2022-09-16T22:13:00.758Z,2.70
2022-09-16T22:15:52.218Z,2.87
2022-09-16T22:18:41.939Z,2.65
2022-09-16T22:21:33.167Z,2.90
2022-09-16T22:24:21.803Z,3.53
2022-09-16T22:27:11.086Z,2.50
2022-09-16T22:30:00.250Z,2.37
2022-09-16T22:32:49.010Z,2.63
2022-09-16T22:35:37.761Z,2.60
2022-09-16T22:38:27.150Z,2.00
2022-09-16T22:41:17.685Z,2.20
2022-09-16T22:44:06.484Z,3.17
2022-09-16T22:46:55.683Z,2.63
2022-09-16T22:49:49.936Z,2.47
2022-09-16T22:52:38.486Z,2.13
2022-09-16T22:55:27.454Z,2.30
2022-09-16T22:58:16.407Z,2.10
2022-09-16T23:01:07.543Z,2.40
2022-09-16T23:03:58.029Z,2.17
2022-09-16T23:06:46.974Z,2.57
2022-09-16T23:09:36.341Z,2.33
2022-09-16T23:12:25.507Z,2.10
2022-09-16T23:15:14.269Z,2.23
2022-09-16T23:18:03.224Z,2.77
2022-09-16T23:20:59.440Z,2.10
2022-09-16T23:23:51.977Z,2.13
2022-09-16T23:26:40.756Z,2.20
2022-09-16T23:29:29.307Z,2.50
2022-09-16T23:32:18.261Z,2.10
2022-09-16T23:35:10.495Z,2.30
2022-09-16T23:40:47.751Z,2.50
2022-09-16T23:43:37.566Z,2.50
2022-09-16T23:46:28.882Z,2.20
2022-09-16T23:49:19.805Z,2.53
2022-09-16T23:52:08.969Z,2.40
2022-09-16T23:54:57.316Z,2.00
2022-09-16T23:57:46.279Z,2.30
